• Join FlightAware (Why Join?)
  • Login
  • US Flag 
12:52PM EDT


 

Airport Tracker/Info


-or-


 

Live Flight TrackerFlight Track Log ✈ DAL975 ✈ 15-Apr-2013 ✈ KLGA - KPIT

Flight Track Log - Related Links

Times and Time Zones

All times are in EDT time to prevent confusion due to time zone crossing. See the DAL975 flight status page for this flight to view local times or setup timezone preferences in your user account.

Time Position Orientation Groundspeed Altitude Reporting Facility
EDT Latitude Longitude Course Direction KTS MPH feet Rate Location/Type
07:21PM 40.7333 -73.8333 270° West 203 234 3,400  Level New York TRACON
07:22PM 40.7667 -73.7667 57° Northeast 266 306 6,300 3,360 Climbing New York TRACON
07:23PM 40.8333 -73.7833 349° North 295 339 10,200 3,000 Climbing New York TRACON
07:24PM 40.8833 -73.8833 304° West 320 368 12,400 2,340 Climbing New York TRACON
07:25PM 40.8833 -74.0000 270° West 358 412 14,900 1,260 Climbing New York TRACON
07:26PM 40.8667 -74.1333 261° West 371 427 15,000 180 Climbing New York TRACON
07:27PM 40.7834 -74.6140 270° West  Level FlightAware Approximate
07:27PM 40.8667 -74.2667 270° West 376 433 15,300  Level New York TRACON
07:28PM 40.8500 -74.4000 261° West 370 426 17,000 600 Climbing New York TRACON
07:30PM 40.8381 -74.6303 266° West 380 437 17,000 180 Level New York Center
07:31PM 40.8294 -74.7694 265° West 380 437 17,500 1,320 Climbing New York Center
07:32PM 40.8206 -74.9061 265° West 385 443 19,600 1,200 Climbing New York Center
07:33PM 40.8092 -75.0453 264° West 385 443 20,000 120 Climbing New York Center
07:34PM 40.7956 -75.1897 263° West 385 443 19,900  Descending New York Center
07:35PM 40.7764 -75.3144 259° West 390 449 20,000  Climbing New York Center
07:36PM 40.7372 -75.4625 251° West 390 449 19,900 120 Descending New York Center
07:37PM 40.6881 -75.5933 244° Southwest 399 459 20,300 1,260 Climbing New York Center
07:38PM 40.6414 -75.7186 244° Southwest 404 465 22,400 2,160 Climbing New York Center
07:39PM 40.5897 -75.8542 243° Southwest 404 465 24,700 1,740 Climbing New York Center
07:40PM 40.5386 -75.9733 241° Southwest 411 473 26,000 1,380 Climbing New York Center
07:41PM 40.4886 -76.1142 245° Southwest 419 482 27,500 960 Climbing New York Center
07:42PM 40.4364 -76.2547 244° Southwest 430 495 28,000 240 Climbing New York Center
07:43PM 40.3772 -76.4053 243° Southwest 430 495 28,000  Level New York Center
07:44PM 40.3386 -76.5519 251° West 430 495 28,000 -120 Level New York Center
07:45PM 40.3022 -76.6986 252° West 423 487 27,800 -660 Descending New York Center
07:46PM 40.2678 -76.8428 253° West 423 487 26,800 -900 Descending New York Center
07:47PM 40.2297 -76.9753 249° West 409 471 26,000 -420 Descending New York Center
07:48PM 40.1928 -77.1189 251° West 409 471 26,000  Level New York Center
07:49PM 40.1561 -77.2594 251° West 414 476 26,000 -660 Level New York Center
07:52PM 40.0700 -77.6042 252° West 407 468 23,900 -900 Descending Cleveland Center
07:53PM 40.0336 -77.7386 251° West 407 468 22,900 -960 Descending Cleveland Center
07:54PM 39.9972 -77.8703 250° West 400 460 22,000 -480 Descending Cleveland Center
07:55PM 39.9711 -78.0042 256° West 389 448 22,000  Level Cleveland Center
07:56PM 39.9764 -78.1447 273° West 384 442 22,000  Level Cleveland Center
07:57PM 39.9794 -78.2908 272° West 397 457 22,000  Level Cleveland Center
07:58PM 39.9825 -78.4453 272° West 412 474 22,000  Level Cleveland Center
07:59PM 39.9872 -78.5969 272° West 418 481 22,000  Level Cleveland Center
08:00PM 39.9897 -78.7458 271° West 418 481 22,000 -480 Level Cleveland Center
08:01PM 39.9922 -78.8950 271° West 418 481 21,100 -1,500 Descending Cleveland Center
08:02PM 40.0003 -79.0303 274° West 402 463 19,100 -1,800 Descending Cleveland Center
08:03PM 40.0019 -79.1522 271° West 370 426 17,500 -1,800 Descending Cleveland Center
08:04PM 40.0033 -79.2794 271° West 353 406 15,600 -1,920 Descending Cleveland Center
08:05PM 40.0089 -79.4014 273° West 346 398 13,700 -1,920 Descending Cleveland Center
08:06PM 40.0661 -79.5006 307° West 336 387 11,800 -1,800 Descending Cleveland Center
08:07PM 40.1131 -79.6086 300° West 336 387 10,100 -900 Descending Cleveland Center
08:08PM 40.1556 -79.7111 299° West 331 381 10,000 -60 Descending Cleveland Center
08:09PM 40.2000 -79.8167 299° West 331 381 10,000  Level Cleveland Center
08:09PM 40.2306 -79.8931 298° West 326 375 10,000  Level FAA TRACON SMA TRACON (SMA)
08:10PM 40.2461 -79.9236 304° West 327 376 10,000  Level FAA TRACON SMA TRACON (SMA)
08:10PM 40.2644 -79.9500 312° West 329 379 10,000  Level FAA TRACON SMA TRACON (SMA)
08:10PM 40.2808 -79.9931 297° West 330 380 10,000  Level FAA TRACON SMA TRACON (SMA)
08:11PM 40.2964 -80.0244 303° West 330 380 10,000  Level FAA TRACON SMA TRACON (SMA)
08:11PM 40.3114 -80.0511 306° West 331 381 10,000  Level FAA TRACON SMA TRACON (SMA)
08:11PM 40.3272 -80.0869 300° West 331 381 10,000  Level FAA TRACON SMA TRACON (SMA)
08:12PM 40.3450 -80.1189 306° West 325 374 10,000 -480 Level FAA TRACON SMA TRACON (SMA)
08:12PM 40.3586 -80.1458 304° West 278 320 9,700 -1,500 Descending FAA TRACON SMA TRACON (SMA)
08:12PM 40.3700 -80.1711 301° West 265 305 9,000 -3,240 Descending FAA TRACON SMA TRACON (SMA)
08:13PM 40.3875 -80.2039 305° West 268 308 7,600 -3,540 Descending FAA TRACON SMA TRACON (SMA)
08:13PM 40.4017 -80.2292 306° West 279 321 6,600 -2,700 Descending FAA TRACON SMA TRACON (SMA)
08:13PM 40.4161 -80.2542 307° West 275 316 5,800 -3,000 Descending FAA TRACON SMA TRACON (SMA)
08:14PM 40.4217 -80.2903 281° West 260 299 4,600 -3,300 Descending FAA TRACON SMA TRACON (SMA)
08:14PM 40.4189 -80.3192 263° West 263 303 3,600 -2,340 Descending FAA TRACON SMA TRACON (SMA)
08:14PM 40.4206 -80.3497 274° West 279 321 3,100 -900 Descending FAA TRACON SMA TRACON (SMA)
08:15PM 40.4314 -80.3839 293° West 251 289 3,000 -180 Descending FAA TRACON SMA TRACON (SMA)
08:15PM 40.4489 -80.3983 328° Northwest 218 251 3,000  Level FAA TRACON SMA TRACON (SMA)
08:15PM 40.4675 -80.3997 357° North 200 230 3,000 -300 Level FAA TRACON SMA TRACON (SMA)
08:16PM 40.4828 -80.3892 28° Northeast 206 237 2,800 -480 Descending FAA TRACON SMA TRACON (SMA)
08:16PM 40.4981 -80.3719 41° Northeast 184 212 2,700 -480 Descending FAA TRACON SMA TRACON (SMA)
08:16PM 40.5042 -80.3556 64° Northeast 151 174 2,500 -780 Descending FAA TRACON SMA TRACON (SMA)
08:17PM 40.5039 -80.3406 91° East 128 147 2,200 -780 Descending FAA TRACON SMA TRACON (SMA)
08:17PM 40.5033 -80.3231 92° East 126 145 2,000 -780 Descending FAA TRACON SMA TRACON (SMA)
08:17PM 40.5031 -80.3089 91° East 124 143 1,700 -660 Descending FAA TRACON SMA TRACON (SMA)
08:18PM 40.5028 -80.2953 92° East 121 139 1,600 -600 Descending FAA TRACON SMA TRACON (SMA)
08:18PM 40.5025 -80.2783 91° East 119 137 1,300 -480 Descending FAA TRACON SMA TRACON (SMA)
08:18PM 40.5025 -80.2750 90° East 120 138 1,300  Level FAA TRACON SMA TRACON (SMA)